sensor_id;sensor_type;location;lat;lon;timestamp;temperature;humidity
65199;HTU21D;52170;45.018;37.910;2023-05-20T00:00:30;15.30;70.61
65199;HTU21D;52170;45.018;37.910;2023-05-20T00:02:56;15.27;0.00
65199;HTU21D;52170;45.018;37.910;2023-05-20T00:05:22;15.24;70.61
65199;HTU21D;52170;45.018;37.910;2023-05-20T00:07:48;15.19;70.90
65199;HTU21D;52170;45.018;37.910;2023-05-20T00:10:14;15.15;71.05
65199;HTU21D;52170;45.018;37.910;2023-05-20T00:12:40;15.13;71.28
65199;HTU21D;52170;45.018;37.910;2023-05-20T00:15:06;15.09;71.18
65199;HTU21D;52170;45.018;37.910;2023-05-20T00:17:33;15.03;71.26
65199;HTU21D;52170;45.018;37.910;2023-05-20T00:19:59;14.99;71.77
65199;HTU21D;52170;45.018;37.910;2023-05-20T00:22:25;14.95;71.93
65199;HTU21D;52170;45.018;37.910;2023-05-20T00:24:51;14.89;71.94
65199;HTU21D;52170;45.018;37.910;2023-05-20T00:27:17;14.88;72.22
65199;HTU21D;52170;45.018;37.910;2023-05-20T00:29:43;14.85;72.41
65199;HTU21D;52170;45.018;37.910;2023-05-20T00:32:08;14.83;72.85
65199;HTU21D;52170;45.018;37.910;2023-05-20T00:34:34;14.79;73.04
65199;HTU21D;52170;45.018;37.910;2023-05-20T00:37:01;14.78;73.06
65199;HTU21D;52170;45.018;37.910;2023-05-20T00:39:27;14.77;72.89
65199;HTU21D;52170;45.018;37.910;2023-05-20T00:41:54;14.74;72.87
65199;HTU21D;52170;45.018;37.910;2023-05-20T00:44:25;14.71;72.77
65199;HTU21D;52170;45.018;37.910;2023-05-20T00:46:52;14.67;72.90
65199;HTU21D;52170;45.018;37.910;2023-05-20T00:49:18;14.65;72.93
65199;HTU21D;52170;45.018;37.910;2023-05-20T00:51:45;14.62;72.87
65199;HTU21D;52170;45.018;37.910;2023-05-20T00:54:12;14.59;72.78
65199;HTU21D;52170;45.018;37.910;2023-05-20T00:56:38;14.57;72.80
65199;HTU21D;52170;45.018;37.910;2023-05-20T00:59:04;14.55;72.75
65199;HTU21D;52170;45.018;37.910;2023-05-20T01:01:31;14.54;72.28
65199;HTU21D;52170;45.018;37.910;2023-05-20T01:03:58;14.52;72.21
65199;HTU21D;52170;45.018;37.910;2023-05-20T01:06:24;14.51;72.23
65199;HTU21D;52170;45.018;37.910;2023-05-20T01:08:50;14.49;72.67
65199;HTU21D;52170;45.018;37.910;2023-05-20T01:11:21;14.45;72.65
65199;HTU21D;52170;45.018;37.910;2023-05-20T01:13:55;14.45;72.67
65199;HTU21D;52170;45.018;37.910;2023-05-20T01:16:23;14.42;72.45
65199;HTU21D;52170;45.018;37.910;2023-05-20T01:18:50;14.39;72.78
65199;HTU21D;52170;45.018;37.910;2023-05-20T01:21:19;14.38;72.77
65199;HTU21D;52170;45.018;37.910;2023-05-20T01:23:47;14.36;72.58
65199;HTU21D;52170;45.018;37.910;2023-05-20T01:26:13;14.33;72.64
65199;HTU21D;52170;45.018;37.910;2023-05-20T01:28:40;14.29;72.36
65199;HTU21D;52170;45.018;37.910;2023-05-20T01:31:25;14.28;72.53
65199;HTU21D;52170;45.018;37.910;2023-05-20T01:33:55;14.26;72.29
65199;HTU21D;52170;45.018;37.910;2023-05-20T01:36:23;14.24;72.19
65199;HTU21D;52170;45.018;37.910;2023-05-20T01:38:52;14.22;72.37
65199;HTU21D;52170;45.018;37.910;2023-05-20T01:41:19;14.19;72.48
65199;HTU21D;52170;45.018;37.910;2023-05-20T01:43:46;14.14;72.61
65199;HTU21D;52170;45.018;37.910;2023-05-20T01:46:13;14.12;72.52
65199;HTU21D;52170;45.018;37.910;2023-05-20T01:48:40;14.09;73.05
65199;HTU21D;52170;45.018;37.910;2023-05-20T01:51:07;14.06;73.01
65199;HTU21D;52170;45.018;37.910;2023-05-20T01:53:33;14.03;73.34
65199;HTU21D;52170;45.018;37.910;2023-05-20T01:55:59;13.99;73.33
65199;HTU21D;52170;45.018;37.910;2023-05-20T01:58:25;13.99;73.42
65199;HTU21D;52170;45.018;37.910;2023-05-20T02:00:51;13.97;73.74
65199;HTU21D;52170;45.018;37.910;2023-05-20T02:03:17;13.96;73.86
65199;HTU21D;52170;45.018;37.910;2023-05-20T02:05:43;13.95;73.69
65199;HTU21D;52170;45.018;37.910;2023-05-20T02:08:10;13.95;73.80
65199;HTU21D;52170;45.018;37.910;2023-05-20T02:10:36;13.94;73.93
65199;HTU21D;52170;45.018;37.910;2023-05-20T02:13:02;13.93;74.17
65199;HTU21D;52170;45.018;37.910;2023-05-20T02:15:28;13.91;74.28
65199;HTU21D;52170;45.018;37.910;2023-05-20T02:17:55;13.91;74.51
65199;HTU21D;52170;45.018;37.910;2023-05-20T02:20:22;13.90;74.61
65199;HTU21D;52170;45.018;37.910;2023-05-20T02:22:48;13.91;74.75
65199;HTU21D;52170;45.018;37.910;2023-05-20T02:25:14;13.93;74.48
65199;HTU21D;52170;45.018;37.910;2023-05-20T02:27:42;13.98;74.09
65199;HTU21D;52170;45.018;37.910;2023-05-20T02:30:08;14.06;73.88
65199;HTU21D;52170;45.018;37.910;2023-05-20T02:32:35;14.07;74.06
65199;HTU21D;52170;45.018;37.910;2023-05-20T02:35:01;14.12;73.87
65199;HTU21D;52170;45.018;37.910;2023-05-20T02:37:27;14.18;73.81
65199;HTU21D;52170;45.018;37.910;2023-05-20T02:39:53;14.20;74.20
65199;HTU21D;52170;45.018;37.910;2023-05-20T02:42:20;14.23;74.46
65199;HTU21D;52170;45.018;37.910;2023-05-20T02:44:47;14.25;74.71
65199;HTU21D;52170;45.018;37.910;2023-05-20T02:47:13;14.27;74.59
65199;HTU21D;52170;45.018;37.910;2023-05-20T02:49:39;14.32;74.96
65199;HTU21D;52170;45.018;37.910;2023-05-20T02:52:05;14.34;75.21
65199;HTU21D;52170;45.018;37.910;2023-05-20T02:54:33;14.36;75.51
65199;HTU21D;52170;45.018;37.910;2023-05-20T02:56:59;14.41;75.61
65199;HTU21D;52170;45.018;37.910;2023-05-20T02:59:25;14.48;75.73
65199;HTU21D;52170;45.018;37.910;2023-05-20T03:01:51;14.53;75.57
65199;HTU21D;52170;45.018;37.910;2023-05-20T03:04:17;14.58;75.56
65199;HTU21D;52170;45.018;37.910;2023-05-20T03:06:44;14.65;75.57
65199;HTU21D;52170;45.018;37.910;2023-05-20T03:09:11;14.70;75.65
65199;HTU21D;52170;45.018;37.910;2023-05-20T03:11:38;14.78;75.50
65199;HTU21D;52170;45.018;37.910;2023-05-20T03:14:04;14.83;74.71
65199;HTU21D;52170;45.018;37.910;2023-05-20T03:16:30;14.87;74.34
65199;HTU21D;52170;45.018;37.910;2023-05-20T03:19:00;14.97;73.89
65199;HTU21D;52170;45.018;37.910;2023-05-20T03:21:26;15.03;73.99
65199;HTU21D;52170;45.018;37.910;2023-05-20T03:23:52;15.13;73.61
65199;HTU21D;52170;45.018;37.910;2023-05-20T03:26:18;15.22;73.32
65199;HTU21D;52170;45.018;37.910;2023-05-20T03:28:45;15.30;72.87
65199;HTU21D;52170;45.018;37.910;2023-05-20T03:31:11;15.39;72.33
65199;HTU21D;52170;45.018;37.910;2023-05-20T03:33:37;15.51;72.03
65199;HTU21D;52170;45.018;37.910;2023-05-20T03:36:04;15.58;71.80
65199;HTU21D;52170;45.018;37.910;2023-05-20T03:38:31;15.69;71.43
65199;HTU21D;52170;45.018;37.910;2023-05-20T03:40:57;15.78;71.20
65199;HTU21D;52170;45.018;37.910;2023-05-20T03:43:23;15.87;71.06
65199;HTU21D;52170;45.018;37.910;2023-05-20T03:45:50;15.95;70.79
65199;HTU21D;52170;45.018;37.910;2023-05-20T03:48:16;16.02;70.76
65199;HTU21D;52170;45.018;37.910;2023-05-20T03:50:42;16.10;70.62
65199;HTU21D;52170;45.018;37.910;2023-05-20T03:53:08;16.17;70.43
65199;HTU21D;52170;45.018;37.910;2023-05-20T03:55:38;16.20;69.83
65199;HTU21D;52170;45.018;37.910;2023-05-20T03:58:04;16.29;69.82
65199;HTU21D;52170;45.018;37.910;2023-05-20T04:00:31;16.36;69.42
65199;HTU21D;52170;45.018;37.910;2023-05-20T04:02:58;16.45;69.52
65199;HTU21D;52170;45.018;37.910;2023-05-20T04:05:24;16.55;69.34
65199;HTU21D;52170;45.018;37.910;2023-05-20T04:07:50;16.63;69.19
65199;HTU21D;52170;45.018;37.910;2023-05-20T04:10:18;16.70;68.88
65199;HTU21D;52170;45.018;37.910;2023-05-20T04:12:45;16.80;68.61
65199;HTU21D;52170;45.018;37.910;2023-05-20T04:15:11;16.91;68.91
65199;HTU21D;52170;45.018;37.910;2023-05-20T04:17:48;17.05;68.94
65199;HTU21D;52170;45.018;37.910;2023-05-20T04:20:15;17.10;68.55
65199;HTU21D;52170;45.018;37.910;2023-05-20T04:22:41;17.20;68.55
65199;HTU21D;52170;45.018;37.910;2023-05-20T04:25:07;17.30;68.70
65199;HTU21D;52170;45.018;37.910;2023-05-20T04:27:34;17.41;68.87
65199;HTU21D;52170;45.018;37.910;2023-05-20T04:30:04;17.53;68.63
65199;HTU21D;52170;45.018;37.910;2023-05-20T04:32:33;17.67;68.77
65199;HTU21D;52170;45.018;37.910;2023-05-20T04:34:59;17.82;68.67
65199;HTU21D;52170;45.018;37.910;2023-05-20T04:37:28;17.96;67.71
65199;HTU21D;52170;45.018;37.910;2023-05-20T04:39:56;18.11;67.55
65199;HTU21D;52170;45.018;37.910;2023-05-20T04:42:22;18.24;67.60
65199;HTU21D;52170;45.018;37.910;2023-05-20T04:44:48;18.39;67.33
65199;HTU21D;52170;45.018;37.910;2023-05-20T04:47:14;18.52;66.78
65199;HTU21D;52170;45.018;37.910;2023-05-20T04:49:41;18.66;66.62
65199;HTU21D;52170;45.018;37.910;2023-05-20T04:52:07;18.81;66.49
65199;HTU21D;52170;45.018;37.910;2023-05-20T04:54:32;18.95;65.82
65199;HTU21D;52170;45.018;37.910;2023-05-20T04:56:58;19.06;65.53
65199;HTU21D;52170;45.018;37.910;2023-05-20T04:59:25;19.20;65.37
65199;HTU21D;52170;45.018;37.910;2023-05-20T05:01:51;19.31;64.66
65199;HTU21D;52170;45.018;37.910;2023-05-20T05:04:17;19.42;64.60
65199;HTU21D;52170;45.018;37.910;2023-05-20T05:06:43;19.54;64.38
65199;HTU21D;52170;45.018;37.910;2023-05-20T05:09:09;19.66;64.38
65199;HTU21D;52170;45.018;37.910;2023-05-20T05:11:38;19.81;63.46
65199;HTU21D;52170;45.018;37.910;2023-05-20T05:14:04;19.94;63.25
65199;HTU21D;52170;45.018;37.910;2023-05-20T05:16:30;20.03;62.78
65199;HTU21D;52170;45.018;37.910;2023-05-20T05:18:57;20.15;62.93
65199;HTU21D;52170;45.018;37.910;2023-05-20T05:21:23;20.25;62.28
65199;HTU21D;52170;45.018;37.910;2023-05-20T05:23:49;20.37;62.48
65199;HTU21D;52170;45.018;37.910;2023-05-20T05:26:16;20.49;61.79
65199;HTU21D;52170;45.018;37.910;2023-05-20T05:28:43;20.57;61.52
65199;HTU21D;52170;45.018;37.910;2023-05-20T05:31:09;20.63;61.33
65199;HTU21D;52170;45.018;37.910;2023-05-20T05:33:35;20.73;61.41
65199;HTU21D;52170;45.018;37.910;2023-05-20T05:36:01;20.86;61.13
65199;HTU21D;52170;45.018;37.910;2023-05-20T05:38:29;20.96;60.99
65199;HTU21D;52170;45.018;37.910;2023-05-20T05:40:55;21.08;60.63
65199;HTU21D;52170;45.018;37.910;2023-05-20T05:43:22;21.17;60.39
65199;HTU21D;52170;45.018;37.910;2023-05-20T05:45:49;21.23;60.00
65199;HTU21D;52170;45.018;37.910;2023-05-20T05:48:15;21.32;60.02
65199;HTU21D;52170;45.018;37.910;2023-05-20T05:50:45;21.45;60.06
65199;HTU21D;52170;45.018;37.910;2023-05-20T05:53:13;21.57;59.90
65199;HTU21D;52170;45.018;37.910;2023-05-20T05:55:42;21.68;59.71
65199;HTU21D;52170;45.018;37.910;2023-05-20T05:58:08;21.81;59.46
65199;HTU21D;52170;45.018;37.910;2023-05-20T06:00:34;21.92;59.38
65199;HTU21D;52170;45.018;37.910;2023-05-20T06:03:01;22.05;59.31
65199;HTU21D;52170;45.018;37.910;2023-05-20T06:05:34;22.17;58.87
65199;HTU21D;52170;45.018;37.910;2023-05-20T06:08:00;22.26;58.27
65199;HTU21D;52170;45.018;37.910;2023-05-20T06:10:26;22.35;57.86
65199;HTU21D;52170;45.018;37.910;2023-05-20T06:12:52;22.47;57.90
65199;HTU21D;52170;45.018;37.910;2023-05-20T06:15:18;22.57;57.71
65199;HTU21D;52170;45.018;37.910;2023-05-20T06:17:44;22.69;57.65
65199;HTU21D;52170;45.018;37.910;2023-05-20T06:20:11;22.85;57.77
65199;HTU21D;52170;45.018;37.910;2023-05-20T06:22:38;22.98;57.42
65199;HTU21D;52170;45.018;37.910;2023-05-20T06:25:05;23.16;57.38
65199;HTU21D;52170;45.018;37.910;2023-05-20T06:27:34;23.31;56.57
65199;HTU21D;52170;45.018;37.910;2023-05-20T06:30:00;23.41;55.41
65199;HTU21D;52170;45.018;37.910;2023-05-20T06:32:26;23.50;55.43
65199;HTU21D;52170;45.018;37.910;2023-05-20T06:34:54;23.65;55.75
65199;HTU21D;52170;45.018;37.910;2023-05-20T06:37:21;23.76;55.23
65199;HTU21D;52170;45.018;37.910;2023-05-20T06:39:50;23.87;54.77
65199;HTU21D;52170;45.018;37.910;2023-05-20T06:42:19;23.98;54.23
65199;HTU21D;52170;45.018;37.910;2023-05-20T06:44:56;24.09;53.32
65199;HTU21D;52170;45.018;37.910;2023-05-20T06:47:54;24.24;52.63
65199;HTU21D;52170;45.018;37.910;2023-05-20T06:50:21;24.31;51.37
65199;HTU21D;52170;45.018;37.910;2023-05-20T06:52:47;24.41;50.82
65199;HTU21D;52170;45.018;37.910;2023-05-20T06:55:13;24.44;50.31
65199;HTU21D;52170;45.018;37.910;2023-05-20T06:57:39;24.49;50.65
65199;HTU21D;52170;45.018;37.910;2023-05-20T07:00:07;24.65;49.70
65199;HTU21D;52170;45.018;37.910;2023-05-20T07:02:38;24.75;48.87
65199;HTU21D;52170;45.018;37.910;2023-05-20T07:05:04;24.79;48.38
65199;HTU21D;52170;45.018;37.910;2023-05-20T07:07:30;24.88;48.43
65199;HTU21D;52170;45.018;37.910;2023-05-20T07:09:57;24.98;48.28
65199;HTU21D;52170;45.018;37.910;2023-05-20T07:12:24;25.02;47.92
65199;HTU21D;52170;45.018;37.910;2023-05-20T07:14:50;25.18;48.30
65199;HTU21D;52170;45.018;37.910;2023-05-20T07:17:16;25.24;46.85
65199;HTU21D;52170;45.018;37.910;2023-05-20T07:19:43;25.27;46.81
65199;HTU21D;52170;45.018;37.910;2023-05-20T07:22:09;25.32;46.68
65199;HTU21D;52170;45.018;37.910;2023-05-20T07:24:56;25.33;45.20
65199;HTU21D;52170;45.018;37.910;2023-05-20T07:27:22;25.34;44.74
65199;HTU21D;52170;45.018;37.910;2023-05-20T07:29:48;25.37;44.34
65199;HTU21D;52170;45.018;37.910;2023-05-20T07:32:15;25.44;44.41
65199;HTU21D;52170;45.018;37.910;2023-05-20T07:34:41;25.51;43.98
65199;HTU21D;52170;45.018;37.910;2023-05-20T07:37:08;25.52;43.05
65199;HTU21D;52170;45.018;37.910;2023-05-20T07:39:35;25.50;43.48
65199;HTU21D;52170;45.018;37.910;2023-05-20T07:42:02;25.58;43.39
65199;HTU21D;52170;45.018;37.910;2023-05-20T07:44:28;25.62;42.31
65199;HTU21D;52170;45.018;37.910;2023-05-20T07:46:55;25.73;43.15
65199;HTU21D;52170;45.018;37.910;2023-05-20T07:49:21;25.82;42.24
65199;HTU21D;52170;45.018;37.910;2023-05-20T07:51:47;25.81;41.64
65199;HTU21D;52170;45.018;37.910;2023-05-20T07:54:14;25.78;41.68
65199;HTU21D;52170;45.018;37.910;2023-05-20T07:56:42;25.84;41.57
65199;HTU21D;52170;45.018;37.910;2023-05-20T07:59:09;26.03;41.68
65199;HTU21D;52170;45.018;37.910;2023-05-20T08:01:42;26.20;41.98
65199;HTU21D;52170;45.018;37.910;2023-05-20T08:04:10;26.31;41.60
65199;HTU21D;52170;45.018;37.910;2023-05-20T08:06:36;26.35;41.55
65199;HTU21D;52170;45.018;37.910;2023-05-20T08:09:05;26.42;41.25
65199;HTU21D;52170;45.018;37.910;2023-05-20T08:11:34;26.39;40.47
65199;HTU21D;52170;45.018;37.910;2023-05-20T08:14:01;26.37;40.75
65199;HTU21D;52170;45.018;37.910;2023-05-20T08:16:30;26.40;40.68
65199;HTU21D;52170;45.018;37.910;2023-05-20T08:18:56;26.41;40.59
65199;HTU21D;52170;45.018;37.910;2023-05-20T08:21:22;26.50;41.29
65199;HTU21D;52170;45.018;37.910;2023-05-20T08:23:48;26.66;40.94
65199;HTU21D;52170;45.018;37.910;2023-05-20T08:26:14;26.73;40.26
65199;HTU21D;52170;45.018;37.910;2023-05-20T08:28:41;26.81;39.93
65199;HTU21D;52170;45.018;37.910;2023-05-20T08:31:07;26.84;39.99
65199;HTU21D;52170;45.018;37.910;2023-05-20T08:33:34;26.86;40.33
65199;HTU21D;52170;45.018;37.910;2023-05-20T08:36:01;26.89;39.75
65199;HTU21D;52170;45.018;37.910;2023-05-20T08:38:27;26.93;39.74
65199;HTU21D;52170;45.018;37.910;2023-05-20T08:40:55;26.99;39.45
65199;HTU21D;52170;45.018;37.910;2023-05-20T08:43:23;27.11;39.87
65199;HTU21D;52170;45.018;37.910;2023-05-20T08:45:49;27.31;40.29
65199;HTU21D;52170;45.018;37.910;2023-05-20T08:48:23;27.41;39.49
65199;HTU21D;52170;45.018;37.910;2023-05-20T08:50:51;27.40;39.39
65199;HTU21D;52170;45.018;37.910;2023-05-20T08:53:21;27.47;39.75
65199;HTU21D;52170;45.018;37.910;2023-05-20T08:55:59;27.51;39.08
65199;HTU21D;52170;45.018;37.910;2023-05-20T08:58:28;27.56;39.85
65199;HTU21D;52170;45.018;37.910;2023-05-20T09:00:54;27.54;38.90
65199;HTU21D;52170;45.018;37.910;2023-05-20T09:03:20;27.60;38.70
65199;HTU21D;52170;45.018;37.910;2023-05-20T09:05:48;27.67;37.82
65199;HTU21D;52170;45.018;37.910;2023-05-20T09:08:14;27.69;37.62
65199;HTU21D;52170;45.018;37.910;2023-05-20T09:10:40;27.74;38.62
65199;HTU21D;52170;45.018;37.910;2023-05-20T09:13:09;27.86;38.24
65199;HTU21D;52170;45.018;37.910;2023-05-20T09:15:35;27.79;37.65
65199;HTU21D;52170;45.018;37.910;2023-05-20T09:18:03;27.81;37.40
65199;HTU21D;52170;45.018;37.910;2023-05-20T09:20:31;27.89;38.26
65199;HTU21D;52170;45.018;37.910;2023-05-20T09:23:04;27.97;37.69
65199;HTU21D;52170;45.018;37.910;2023-05-20T09:25:31;28.05;37.51
65199;HTU21D;52170;45.018;37.910;2023-05-20T09:27:57;28.11;37.46
65199;HTU21D;52170;45.018;37.910;2023-05-20T09:30:23;28.10;37.06
65199;HTU21D;52170;45.018;37.910;2023-05-20T09:32:59;28.03;37.01
65199;HTU21D;52170;45.018;37.910;2023-05-20T09:35:26;28.02;36.61
65199;HTU21D;52170;45.018;37.910;2023-05-20T09:37:55;27.96;37.00
65199;HTU21D;52170;45.018;37.910;2023-05-20T09:40:26;27.85;36.56
65199;HTU21D;52170;45.018;37.910;2023-05-20T09:43:04;27.81;37.71
65199;HTU21D;52170;45.018;37.910;2023-05-20T09:45:31;27.96;37.83
65199;HTU21D;52170;45.018;37.910;2023-05-20T09:47:59;27.98;37.07
65199;HTU21D;52170;45.018;37.910;2023-05-20T09:50:26;27.88;36.60
65199;HTU21D;52170;45.018;37.910;2023-05-20T09:52:54;27.90;37.09
65199;HTU21D;52170;45.018;37.910;2023-05-20T09:55:23;28.02;36.37
65199;HTU21D;52170;45.018;37.910;2023-05-20T09:57:49;28.05;36.72
65199;HTU21D;52170;45.018;37.910;2023-05-20T10:00:16;28.10;35.92
65199;HTU21D;52170;45.018;37.910;2023-05-20T10:02:49;28.04;35.63
65199;HTU21D;52170;45.018;37.910;2023-05-20T10:05:31;28.02;35.53
65199;HTU21D;52170;45.018;37.910;2023-05-20T10:13:47;28.25;35.53
65199;HTU21D;52170;45.018;37.910;2023-05-20T10:19:08;28.27;35.46
65199;HTU21D;52170;45.018;37.910;2023-05-20T10:21:36;28.23;35.47
65199;HTU21D;52170;45.018;37.910;2023-05-20T10:24:09;28.08;35.17
65199;HTU21D;52170;45.018;37.910;2023-05-20T10:26:36;27.88;35.04
65199;HTU21D;52170;45.018;37.910;2023-05-20T10:29:16;27.68;35.36
65199;HTU21D;52170;45.018;37.910;2023-05-20T10:31:50;27.44;35.10
65199;HTU21D;52170;45.018;37.910;2023-05-20T10:34:18;27.25;35.39
65199;HTU21D;52170;45.018;37.910;2023-05-20T10:36:56;27.14;35.65
65199;HTU21D;52170;45.018;37.910;2023-05-20T10:39:31;27.02;35.86
65199;HTU21D;52170;45.018;37.910;2023-05-20T10:42:07;26.99;35.66
65199;HTU21D;52170;45.018;37.910;2023-05-20T10:44:43;0.00;35.63
65199;HTU21D;52170;45.018;37.910;2023-05-20T10:47:10;26.97;36.19
65199;HTU21D;52170;45.018;37.910;2023-05-20T10:49:40;26.91;36.93
65199;HTU21D;52170;45.018;37.910;2023-05-20T10:52:09;26.80;36.55
65199;HTU21D;52170;45.018;37.910;2023-05-20T10:54:41;26.61;36.40
65199;HTU21D;52170;45.018;37.910;2023-05-20T10:57:09;26.41;36.72
65199;HTU21D;52170;45.018;37.910;2023-05-20T10:59:36;26.24;37.46
65199;HTU21D;52170;45.018;37.910;2023-05-20T11:02:02;26.06;37.81
65199;HTU21D;52170;45.018;37.910;2023-05-20T11:04:29;25.84;38.30
65199;HTU21D;52170;45.018;37.910;2023-05-20T11:06:56;25.69;39.05
65199;HTU21D;52170;45.018;37.910;2023-05-20T11:09:23;25.58;0.00
65199;HTU21D;52170;45.018;37.910;2023-05-20T11:11:52;25.48;39.46
65199;HTU21D;52170;45.018;37.910;2023-05-20T11:14:19;25.35;39.46
65199;HTU21D;52170;45.018;37.910;2023-05-20T11:16:49;25.23;39.40
65199;HTU21D;52170;45.018;37.910;2023-05-20T11:19:15;25.14;39.87
65199;HTU21D;52170;45.018;37.910;2023-05-20T11:21:44;25.08;40.00
65199;HTU21D;52170;45.018;37.910;2023-05-20T11:24:11;25.00;40.08
65199;HTU21D;52170;45.018;37.910;2023-05-20T11:26:38;24.93;40.46
65199;HTU21D;52170;45.018;37.910;2023-05-20T11:29:04;24.92;41.35
65199;HTU21D;52170;45.018;37.910;2023-05-20T11:31:30;24.92;41.43
65199;HTU21D;52170;45.018;37.910;2023-05-20T11:34:00;24.92;41.14
65199;HTU21D;52170;45.018;37.910;2023-05-20T11:36:29;24.90;41.21
65199;HTU21D;52170;45.018;37.910;2023-05-20T11:38:59;24.91;41.26
65199;HTU21D;52170;45.018;37.910;2023-05-20T11:41:26;24.92;41.33
65199;HTU21D;52170;45.018;37.910;2023-05-20T11:43:58;24.97;42.27
65199;HTU21D;52170;45.018;37.910;2023-05-20T11:46:26;25.02;41.56
65199;HTU21D;52170;45.018;37.910;2023-05-20T11:48:53;25.07;40.71
65199;HTU21D;52170;45.018;37.910;2023-05-20T11:51:28;25.13;40.49
65199;HTU21D;52170;45.018;37.910;2023-05-20T11:54:02;25.22;40.85
65199;HTU21D;52170;45.018;37.910;2023-05-20T11:56:29;25.25;40.73
65199;HTU21D;52170;45.018;37.910;2023-05-20T11:58:56;25.32;40.82
65199;HTU21D;52170;45.018;37.910;2023-05-20T12:01:23;25.35;40.90
65199;HTU21D;52170;45.018;37.910;2023-05-20T12:03:49;25.38;41.14
65199;HTU21D;52170;45.018;37.910;2023-05-20T12:06:16;25.45;41.39
65199;HTU21D;52170;45.018;37.910;2023-05-20T12:08:42;25.48;41.75
65199;HTU21D;52170;45.018;37.910;2023-05-20T12:11:08;25.50;42.27
65199;HTU21D;52170;45.018;37.910;2023-05-20T12:13:34;25.50;41.71
65199;HTU21D;52170;45.018;37.910;2023-05-20T12:16:00;25.56;41.66
65199;HTU21D;52170;45.018;37.910;2023-05-20T12:18:26;25.56;41.55
65199;HTU21D;52170;45.018;37.910;2023-05-20T12:20:52;25.51;41.28
65199;HTU21D;52170;45.018;37.910;2023-05-20T12:23:18;25.49;41.29
65199;HTU21D;52170;45.018;37.910;2023-05-20T12:25:43;25.48;40.97
65199;HTU21D;52170;45.018;37.910;2023-05-20T12:28:11;25.46;40.54
65199;HTU21D;52170;45.018;37.910;2023-05-20T12:30:37;24.53;39.35
65199;HTU21D;52170;45.018;37.910;2023-05-20T12:33:03;25.40;39.33
65199;HTU21D;52170;45.018;37.910;2023-05-20T12:35:37;25.37;39.01
65199;HTU21D;52170;45.018;37.910;2023-05-20T12:38:03;25.38;39.32
65199;HTU21D;52170;45.018;37.910;2023-05-20T12:40:29;25.38;39.67
65199;HTU21D;52170;45.018;37.910;2023-05-20T12:42:55;25.36;39.68
65199;HTU21D;52170;45.018;37.910;2023-05-20T12:45:22;25.32;40.16
65199;HTU21D;52170;45.018;37.910;2023-05-20T12:47:48;25.28;40.58
65199;HTU21D;52170;45.018;37.910;2023-05-20T12:50:14;25.16;40.38
65199;HTU21D;52170;45.018;37.910;2023-05-20T12:52:40;25.08;39.70
65199;HTU21D;52170;45.018;37.910;2023-05-20T12:55:06;25.02;39.56
65199;HTU21D;52170;45.018;37.910;2023-05-20T12:57:39;24.99;39.72
65199;HTU21D;52170;45.018;37.910;2023-05-20T13:00:09;24.98;39.68
65199;HTU21D;52170;45.018;37.910;2023-05-20T13:02:36;24.95;39.70
65199;HTU21D;52170;45.018;37.910;2023-05-20T13:05:02;24.93;39.58
65199;HTU21D;52170;45.018;37.910;2023-05-20T13:07:28;24.90;39.80
65199;HTU21D;52170;45.018;37.910;2023-05-20T13:09:54;24.87;40.07
65199;HTU21D;52170;45.018;37.910;2023-05-20T13:12:20;24.80;39.77
65199;HTU21D;52170;45.018;37.910;2023-05-20T13:14:46;24.77;40.00
65199;HTU21D;52170;45.018;37.910;2023-05-20T13:17:12;24.75;39.81
65199;HTU21D;52170;45.018;37.910;2023-05-20T13:19:38;24.74;40.04
65199;HTU21D;52170;45.018;37.910;2023-05-20T13:22:04;24.75;40.59
65199;HTU21D;52170;45.018;37.910;2023-05-20T13:24:36;24.72;40.64
65199;HTU21D;52170;45.018;37.910;2023-05-20T13:27:03;24.73;40.95
65199;HTU21D;52170;45.018;37.910;2023-05-20T13:29:30;24.72;41.09
65199;HTU21D;52170;45.018;37.910;2023-05-20T13:31:56;24.66;41.04
65199;HTU21D;52170;45.018;37.910;2023-05-20T13:34:22;24.64;40.78
65199;HTU21D;52170;45.018;37.910;2023-05-20T13:36:48;24.64;40.82
65199;HTU21D;52170;45.018;37.910;2023-05-20T13:39:14;24.61;40.77
65199;HTU21D;52170;45.018;37.910;2023-05-20T13:41:41;24.59;40.69
65199;HTU21D;52170;45.018;37.910;2023-05-20T13:44:07;24.59;40.84
65199;HTU21D;52170;45.018;37.910;2023-05-20T13:46:34;24.56;40.99
65199;HTU21D;52170;45.018;37.910;2023-05-20T13:49:00;24.53;40.97
65199;HTU21D;52170;45.018;37.910;2023-05-20T13:51:26;24.48;41.17
65199;HTU21D;52170;45.018;37.910;2023-05-20T13:53:52;24.45;41.27
65199;HTU21D;52170;45.018;37.910;2023-05-20T13:56:18;24.45;41.52
65199;HTU21D;52170;45.018;37.910;2023-05-20T13:58:44;24.43;41.69
65199;HTU21D;52170;45.018;37.910;2023-05-20T14:01:10;24.41;41.74
65199;HTU21D;52170;45.018;37.910;2023-05-20T14:03:39;24.40;41.74
65199;HTU21D;52170;45.018;37.910;2023-05-20T14:06:07;24.38;41.90
65199;HTU21D;52170;45.018;37.910;2023-05-20T14:08:33;24.36;42.00
65199;HTU21D;52170;45.018;37.910;2023-05-20T14:10:59;24.33;42.10
65199;HTU21D;52170;45.018;37.910;2023-05-20T14:13:25;24.31;42.15
65199;HTU21D;52170;45.018;37.910;2023-05-20T14:15:51;24.29;42.23
65199;HTU21D;52170;45.018;37.910;2023-05-20T14:18:19;24.27;42.50
65199;HTU21D;52170;45.018;37.910;2023-05-20T14:20:46;24.27;42.74
65199;HTU21D;52170;45.018;37.910;2023-05-20T14:23:12;24.28;42.74
65199;HTU21D;52170;45.018;37.910;2023-05-20T14:25:38;24.25;43.11
65199;HTU21D;52170;45.018;37.910;2023-05-20T14:28:04;24.27;43.25
65199;HTU21D;52170;45.018;37.910;2023-05-20T14:30:30;24.28;43.42
65199;HTU21D;52170;45.018;37.910;2023-05-20T14:32:56;24.29;43.52
65199;HTU21D;52170;45.018;37.910;2023-05-20T14:35:22;24.32;43.54
65199;HTU21D;52170;45.018;37.910;2023-05-20T14:37:48;24.36;43.82
65199;HTU21D;52170;45.018;37.910;2023-05-20T14:40:14;24.42;43.81
65199;HTU21D;52170;45.018;37.910;2023-05-20T14:42:41;24.49;43.45
65199;HTU21D;52170;45.018;37.910;2023-05-20T14:45:07;24.54;43.24
65199;HTU21D;52170;45.018;37.910;2023-05-20T14:47:33;24.61;43.44
65199;HTU21D;52170;45.018;37.910;2023-05-20T14:49:59;24.69;43.29
65199;HTU21D;52170;45.018;37.910;2023-05-20T14:52:25;24.75;42.96
65199;HTU21D;52170;45.018;37.910;2023-05-20T14:54:51;24.77;43.02
65199;HTU21D;52170;45.018;37.910;2023-05-20T14:57:17;24.80;42.81
65199;HTU21D;52170;45.018;37.910;2023-05-20T14:59:44;24.86;42.30
65199;HTU21D;52170;45.018;37.910;2023-05-20T15:02:10;24.89;42.42
65199;HTU21D;52170;45.018;37.910;2023-05-20T15:04:37;24.93;42.45
65199;HTU21D;52170;45.018;37.910;2023-05-20T15:07:04;24.93;41.91
65199;HTU21D;52170;45.018;37.910;2023-05-20T15:09:29;24.95;42.16
65199;HTU21D;52170;45.018;37.910;2023-05-20T15:11:56;24.94;42.33